KFVE 151453Z AUTO 12007KT 10SM FEW075 OVC090 09/02 A3005 RMK AO2 SLP180 T00890022 58009